createdAt,value
2022-12-28T00:01:54.411Z,101239.91
2022-12-28T00:04:25.531Z,101244.28
2022-12-28T00:06:54.040Z,101243.44
2022-12-28T00:09:26.340Z,101247.91
2022-12-28T00:11:54.645Z,101250.69
2022-12-28T00:14:26.109Z,101248.84
2022-12-28T00:16:54.381Z,101257.78
2022-12-28T00:19:25.685Z,101259.63
2022-12-28T00:21:55.273Z,101274.75
2022-12-28T00:24:26.025Z,101288.16
2022-12-28T00:26:56.638Z,101283.88
2022-12-28T00:29:25.361Z,101277.88
2022-12-28T00:31:53.718Z,101276.38
2022-12-28T00:34:25.009Z,101292.38
2022-12-28T00:37:09.574Z,101290.75
2022-12-28T00:39:41.964Z,101288.91
2022-12-28T00:42:11.237Z,101301.41
2022-12-28T00:44:39.843Z,101302.25
2022-12-28T00:47:08.635Z,101313.72
2022-12-28T00:49:36.957Z,101297.00
2022-12-28T00:52:05.639Z,101301.94
2022-12-28T00:54:34.027Z,101293.31
2022-12-28T00:57:06.460Z,101290.66
2022-12-28T00:59:34.781Z,101286.94
2022-12-28T01:02:09.729Z,101295.69
2022-12-28T01:04:38.075Z,101284.09
2022-12-28T01:07:06.362Z,101300.16
2022-12-28T01:09:36.862Z,101300.25
2022-12-28T01:12:05.511Z,101290.44
2022-12-28T01:14:34.069Z,101295.78
2022-12-28T01:17:09.538Z,101299.38
2022-12-28T01:19:37.852Z,101311.84
2022-12-28T01:22:06.359Z,101319.09
2022-12-28T01:24:34.734Z,101312.97
2022-12-28T01:27:17.351Z,101311.22
2022-12-28T01:29:45.694Z,101296.69
2022-12-28T01:32:14.040Z,101299.72
2022-12-28T01:34:44.365Z,101310.56
2022-12-28T01:37:21.147Z,101313.13
2022-12-28T01:39:49.687Z,101314.75
2022-12-28T01:42:23.360Z,101327.31
2022-12-28T01:44:52.755Z,101320.91
2022-12-28T01:47:37.173Z,101330.41
2022-12-28T01:50:21.170Z,101339.78
2022-12-28T01:52:53.808Z,101341.09
2022-12-28T01:55:30.040Z,101342.31
2022-12-28T01:58:01.007Z,101347.34
2022-12-28T02:00:30.030Z,101350.50
2022-12-28T02:03:12.233Z,101345.66
2022-12-28T02:05:44.430Z,101356.81
2022-12-28T02:08:19.836Z,101360.59
2022-12-28T02:10:48.804Z,101348.50
2022-12-28T02:13:18.528Z,101356.66
2022-12-28T02:15:47.939Z,101359.56
2022-12-28T02:18:23.385Z,101366.84
2022-12-28T02:21:25.746Z,101361.25
2022-12-28T02:24:27.211Z,101370.38
2022-12-28T02:27:31.874Z,101372.50
2022-12-28T02:30:08.883Z,101376.19
2022-12-28T02:32:52.038Z,101380.47
2022-12-28T02:35:29.451Z,101388.91
2022-12-28T02:38:33.010Z,101393.59
2022-12-28T02:41:19.942Z,101411.66
2022-12-28T02:43:56.890Z,101414.19
2022-12-28T02:46:52.312Z,101421.00
2022-12-28T02:49:48.740Z,101435.00
2022-12-28T02:52:53.806Z,101435.84
2022-12-28T02:55:57.062Z,101442.97
2022-12-28T02:58:40.150Z,101446.56
2022-12-28T03:01:21.390Z,101444.09
2022-12-28T03:04:21.827Z,101447.50
2022-12-28T03:07:35.877Z,101451.72
2022-12-28T03:10:26.027Z,101460.66
2022-12-28T03:13:34.042Z,101450.25
2022-12-28T03:16:36.001Z,101456.19
2022-12-28T03:19:28.331Z,101473.50
2022-12-28T03:22:19.314Z,101481.81
2022-12-28T03:25:07.549Z,101487.44
2022-12-28T03:27:56.853Z,101481.63
2022-12-28T03:30:49.477Z,101489.66
2022-12-28T03:33:17.907Z,101498.50
2022-12-28T03:36:03.760Z,101505.09
2022-12-28T03:38:46.008Z,101511.63
2022-12-28T03:41:37.194Z,101517.56
2022-12-28T03:44:17.380Z,101523.47
2022-12-28T03:47:16.323Z,101533.19
2022-12-28T03:49:44.707Z,101527.78
2022-12-28T03:52:24.373Z,101513.56
2022-12-28T03:55:01.130Z,101509.44
2022-12-28T03:57:32.560Z,101512.44
2022-12-28T04:00:00.447Z,101511.56
2022-12-28T04:02:32.167Z,101500.84
2022-12-28T04:05:00.546Z,101496.56
2022-12-28T04:07:29.604Z,101507.44
2022-12-28T04:09:57.822Z,101505.66
2022-12-28T04:12:32.089Z,101508.22
2022-12-28T04:15:00.465Z,101513.88
2022-12-28T04:17:31.510Z,101521.31
2022-12-28T04:20:02.440Z,101525.31
2022-12-28T04:22:30.711Z,101527.03
2022-12-28T04:25:01.936Z,101536.00
2022-12-28T04:27:33.217Z,101534.38
2022-12-28T04:30:01.483Z,101536.00
2022-12-28T04:32:32.736Z,101549.81
2022-12-28T04:35:01.032Z,101553.94
2022-12-28T04:37:31.738Z,101547.44
2022-12-28T04:40:00.437Z,101542.94
2022-12-28T04:42:31.592Z,101538.28
2022-12-28T04:45:02.800Z,101544.41
2022-12-28T04:47:31.099Z,101539.00
2022-12-28T04:50:01.670Z,101541.66
2022-12-28T04:52:34.966Z,101540.78
2022-12-28T04:55:03.288Z,101543.44
2022-12-28T04:57:31.586Z,101546.19
2022-12-28T05:00:02.841Z,101557.78
2022-12-28T05:02:34.113Z,101565.03
2022-12-28T05:05:02.514Z,101577.88
2022-12-28T05:07:33.884Z,101576.88
2022-12-28T05:10:02.113Z,101572.19
2022-12-28T05:12:33.349Z,101574.59
2022-12-28T05:15:01.616Z,101578.09
2022-12-28T05:17:33.540Z,101581.38
2022-12-28T05:20:02.066Z,101588.84
2022-12-28T05:22:36.303Z,101589.16
2022-12-28T05:25:15.170Z,101588.00
2022-12-28T05:27:43.428Z,101590.50
2022-12-28T05:30:28.327Z,101590.97
2022-12-28T05:33:02.058Z,101587.22
2022-12-28T05:35:33.337Z,101581.56
2022-12-28T05:38:01.595Z,101583.72
2022-12-28T05:40:34.274Z,101584.22
2022-12-28T05:43:02.509Z,101581.25
2022-12-28T05:45:33.660Z,101574.69
2022-12-28T05:48:04.666Z,101583.31
2022-12-28T05:50:32.926Z,101574.47
2022-12-28T05:53:04.191Z,101571.72
2022-12-28T05:55:32.398Z,101567.19
2022-12-28T05:58:03.693Z,101570.63
2022-12-28T06:00:32.000Z,101568.91
2022-12-28T06:03:03.679Z,101569.75
2022-12-28T06:05:32.143Z,101574.13
2022-12-28T06:08:03.502Z,101582.09
2022-12-28T06:10:34.829Z,101585.00
2022-12-28T06:13:06.387Z,101582.63
2022-12-28T06:15:34.233Z,101584.66
2022-12-28T06:18:02.551Z,101592.72
2022-12-28T06:20:34.007Z,101591.06
2022-12-28T06:23:01.960Z,101587.78
2022-12-28T06:25:32.863Z,101597.56
2022-12-28T06:28:03.409Z,101599.34
2022-12-28T06:30:34.483Z,101600.28
2022-12-28T06:33:02.706Z,101596.94
2022-12-28T06:35:34.013Z,101604.97
2022-12-28T06:38:02.545Z,101607.22
2022-12-28T06:41:02.531Z,101611.03
2022-12-28T06:43:28.908Z,101618.22
2022-12-28T06:46:07.690Z,101623.63
2022-12-28T06:48:37.097Z,101622.72
2022-12-28T06:51:17.356Z,101636.81
2022-12-28T06:53:46.769Z,101641.31
2022-12-28T06:56:32.775Z,101649.28
2022-12-28T06:59:05.019Z,101659.88
2022-12-28T07:01:41.873Z,101660.78
2022-12-28T07:04:11.961Z,101658.34
2022-12-28T07:06:43.047Z,101662.06
2022-12-28T07:09:17.335Z,101660.66
2022-12-28T07:11:46.222Z,101670.47
2022-12-28T07:14:20.237Z,101663.47
2022-12-28T07:16:49.757Z,101674.22
2022-12-28T07:19:27.417Z,101665.22
2022-12-28T07:22:04.569Z,101666.03
2022-12-28T07:24:33.026Z,101659.16
2022-12-28T07:27:04.401Z,101673.34
2022-12-28T07:29:32.372Z,101671.56
2022-12-28T07:32:01.890Z,101676.72
2022-12-28T07:34:37.555Z,101665.81
2022-12-28T07:37:05.841Z,101663.00
2022-12-28T07:39:37.376Z,101665.59
2022-12-28T07:42:07.779Z,101665.81
2022-12-28T07:44:38.313Z,101673.19
2022-12-28T07:47:07.002Z,101671.72
2022-12-28T07:49:35.574Z,101671.13
2022-12-28T07:52:04.023Z,101668.09
2022-12-28T07:54:35.564Z,101665.91
2022-12-28T07:57:05.728Z,101675.28
2022-12-28T07:59:37.052Z,101679.22
2022-12-28T08:02:05.565Z,101678.47
2022-12-28T08:04:33.940Z,101673.03
2022-12-28T08:07:05.411Z,101675.81
2022-12-28T08:09:36.059Z,101677.91
2022-12-28T08:12:04.529Z,101691.47
2022-12-28T08:14:35.571Z,101681.94
2022-12-28T08:17:04.141Z,101692.75
2022-12-28T08:19:32.504Z,101686.59
2022-12-28T08:22:03.876Z,101686.44
2022-12-28T08:24:36.440Z,101683.94
2022-12-28T08:27:07.218Z,101687.66
2022-12-28T08:29:35.496Z,101677.03
2022-12-28T08:32:06.947Z,101674.53
2022-12-28T08:34:34.812Z,101667.88
2022-12-28T08:37:03.238Z,101661.06
2022-12-28T08:39:34.508Z,101666.41
2022-12-28T08:42:05.598Z,101656.75
2022-12-28T08:44:36.805Z,101656.09
2022-12-28T08:47:05.250Z,101659.88
2022-12-28T08:49:36.093Z,101646.91
2022-12-28T08:52:08.467Z,101646.28
2022-12-28T08:55:00.476Z,101639.44
2022-12-28T08:57:33.727Z,101635.34
2022-12-28T09:00:02.115Z,101629.50
2022-12-28T09:02:38.030Z,101628.06
2022-12-28T09:05:06.888Z,101624.84
2022-12-28T09:07:37.893Z,101631.13
2022-12-28T09:10:06.656Z,101624.28
2022-12-28T09:12:37.491Z,101624.44
2022-12-28T09:15:06.272Z,101621.97
2022-12-28T09:17:36.902Z,101618.56
2022-12-28T09:20:08.637Z,101616.94
2022-12-28T09:22:39.301Z,101610.94
2022-12-28T09:25:08.089Z,101612.00
2022-12-28T09:27:39.251Z,101595.47
2022-12-28T09:30:08.737Z,101606.28
2022-12-28T09:32:37.010Z,101606.38
2022-12-28T09:35:05.605Z,101598.59
2022-12-28T09:37:37.213Z,101601.41
2022-12-28T09:40:10.667Z,101606.81
2022-12-28T09:42:47.598Z,101603.44
2022-12-28T09:45:20.238Z,101604.56
2022-12-28T09:48:04.352Z,101614.25
2022-12-28T09:50:35.883Z,101617.97
2022-12-28T09:53:06.847Z,101613.75
2022-12-28T09:55:46.058Z,101616.41
2022-12-28T09:58:19.329Z,101619.06
2022-12-28T10:00:56.061Z,101624.41
2022-12-28T10:03:30.238Z,101627.13
2022-12-28T10:06:01.903Z,101633.47
2022-12-28T10:08:33.470Z,101638.91
2022-12-28T10:11:03.793Z,101637.13
2022-12-28T10:13:56.898Z,101640.47
2022-12-28T10:16:32.422Z,101633.47
2022-12-28T10:19:09.101Z,101628.19
2022-12-28T10:21:37.742Z,101631.78
2022-12-28T10:27:00.476Z,101643.28
2022-12-28T10:29:29.464Z,101638.06
2022-12-28T10:32:07.463Z,101637.25
2022-12-28T10:34:37.607Z,101639.84
2022-12-28T10:37:16.119Z,101641.41
2022-12-28T10:40:02.249Z,101641.22
2022-12-28T10:42:36.407Z,101636.13
2022-12-28T10:45:17.640Z,101645.28
2022-12-28T10:47:49.935Z,101633.31
2022-12-28T10:50:43.707Z,101639.66
2022-12-28T10:53:21.697Z,101637.22
2022-12-28T10:55:53.025Z,101633.88
2022-12-28T10:58:31.300Z,101631.34
2022-12-28T11:01:14.902Z,101630.56
2022-12-28T11:04:06.983Z,101650.97
2022-12-28T11:06:37.793Z,101646.63
2022-12-28T11:09:17.607Z,101643.19
2022-12-28T11:11:47.488Z,101635.31
2022-12-28T11:14:38.872Z,101632.63
2022-12-28T11:17:38.722Z,101635.31
2022-12-28T11:20:37.392Z,101640.56
2022-12-28T11:23:10.299Z,101641.56
2022-12-28T11:25:38.865Z,101643.38
2022-12-28T11:28:22.749Z,101645.19
2022-12-28T11:30:57.800Z,101655.69
2022-12-28T11:33:39.961Z,101658.06
2022-12-28T11:36:16.374Z,101658.59
2022-12-28T11:38:47.121Z,101656.97
2022-12-28T11:41:36.196Z,101651.81
2022-12-28T11:44:06.059Z,101649.38
2022-12-28T11:46:38.659Z,101648.47
2022-12-28T11:49:28.566Z,101645.00
2022-12-28T11:52:18.415Z,101643.22
2022-12-28T11:54:55.998Z,101647.75
2022-12-28T11:57:40.687Z,101649.66
2022-12-28T12:00:46.007Z,101650.69
2022-12-28T12:03:14.418Z,101649.97
2022-12-28T12:05:52.960Z,101650.03
2022-12-28T12:08:24.364Z,101638.72
2022-12-28T12:11:41.484Z,101644.91
2022-12-28T12:14:10.047Z,101646.03
2022-12-28T12:17:06.312Z,101650.41
2022-12-28T12:19:39.049Z,101650.56
2022-12-28T12:22:19.792Z,101651.50
2022-12-28T12:24:59.732Z,101646.28
2022-12-28T12:27:53.836Z,101648.94
2022-12-28T12:30:26.828Z,101647.34
2022-12-28T12:33:07.781Z,101643.03
2022-12-28T12:35:51.100Z,101644.03
2022-12-28T12:38:56.680Z,101635.47
2022-12-28T12:41:58.023Z,101628.63
2022-12-28T12:45:16.283Z,101626.94
2022-12-28T12:48:17.784Z,101628.69
2022-12-28T12:51:00.754Z,101627.75
2022-12-28T12:53:32.128Z,101627.53
2022-12-28T12:56:38.307Z,101635.06
2022-12-28T12:59:26.881Z,101631.53
2022-12-28T13:02:13.729Z,101628.16
2022-12-28T13:04:46.998Z,101623.28
2022-12-28T13:07:30.965Z,101627.34
2022-12-28T13:10:07.444Z,101611.91
2022-12-28T13:12:37.876Z,101613.00
2022-12-28T13:15:12.528Z,101621.09
2022-12-28T13:17:43.099Z,101614.59
2022-12-28T13:20:25.075Z,101625.63
2022-12-28T13:22:57.332Z,101633.97
2022-12-28T13:25:35.184Z,101627.94
2022-12-28T13:28:05.295Z,101637.66
2022-12-28T13:30:41.038Z,101643.06
2022-12-28T13:33:22.895Z,101651.31
2022-12-28T13:35:51.417Z,101647.94
2022-12-28T13:38:19.911Z,101651.47
2022-12-28T13:40:53.739Z,101653.09
2022-12-28T13:43:56.510Z,101649.47
2022-12-28T13:46:28.729Z,101643.28
2022-12-28T13:49:00.352Z,101651.91
2022-12-28T13:51:29.272Z,101658.00
2022-12-28T13:54:02.376Z,101661.41
2022-12-28T13:56:42.321Z,101665.69
2022-12-28T13:59:15.350Z,101675.28
2022-12-28T14:01:56.177Z,101678.00
2022-12-28T14:04:52.277Z,101683.31
2022-12-28T14:07:18.224Z,101691.19
2022-12-28T14:09:47.860Z,101692.19
2022-12-28T14:12:17.520Z,101682.56
2022-12-28T14:14:50.750Z,101685.97
2022-12-28T14:17:20.106Z,101690.28
2022-12-28T14:19:52.872Z,101691.91
2022-12-28T14:22:30.202Z,101702.47
2022-12-28T14:25:11.478Z,101700.63
2022-12-28T14:28:07.861Z,101702.78
2022-12-28T14:30:44.740Z,101719.19
2022-12-28T14:33:24.983Z,101711.59
2022-12-28T14:35:58.195Z,101715.25
2022-12-28T14:38:33.649Z,101725.19
2022-12-28T14:41:04.160Z,101729.72
2022-12-28T14:43:41.525Z,101730.06
2022-12-28T14:46:32.433Z,101728.47
2022-12-28T14:49:29.948Z,101729.44
2022-12-28T14:52:10.103Z,101740.72
2022-12-28T14:54:48.545Z,101731.84
2022-12-28T14:57:33.701Z,101734.56
2022-12-28T15:00:21.770Z,101734.72
2022-12-28T15:02:51.093Z,101738.47
2022-12-28T15:05:55.432Z,101743.63
2022-12-28T15:08:24.009Z,101746.16
2022-12-28T15:10:55.727Z,101751.81
2022-12-28T15:13:25.874Z,101755.50
2022-12-28T15:16:07.445Z,101757.25
2022-12-28T15:18:35.683Z,101755.50
2022-12-28T15:21:07.320Z,101754.56
2022-12-28T15:23:35.759Z,101752.75
2022-12-28T15:26:11.825Z,101743.47
2022-12-28T15:28:40.968Z,101744.38
2022-12-28T15:31:12.588Z,101743.41
2022-12-28T15:33:41.008Z,101755.56
2022-12-28T15:36:17.813Z,101758.28
2022-12-28T15:39:00.339Z,101754.16
2022-12-28T15:41:48.009Z,101758.94
2022-12-28T15:44:19.339Z,101761.84
2022-12-28T15:46:50.793Z,101767.31
2022-12-28T15:49:19.997Z,101770.84
2022-12-28T15:51:48.452Z,101768.84
2022-12-28T15:54:16.766Z,101777.50
2022-12-28T15:56:45.243Z,101767.63
2022-12-28T15:59:15.781Z,101760.28
2022-12-28T16:01:45.938Z,101760.78
2022-12-28T16:04:15.187Z,101762.25
2022-12-28T16:06:44.952Z,101775.06
2022-12-28T16:09:15.039Z,101761.41
2022-12-28T16:11:43.818Z,101761.81
2022-12-28T16:14:17.525Z,101746.31
2022-12-28T16:16:54.251Z,101745.66
2022-12-28T16:19:23.007Z,101745.03
2022-12-28T16:22:00.716Z,101734.84
2022-12-28T16:24:41.320Z,101737.03
2022-12-28T16:27:12.792Z,101744.38
2022-12-28T16:29:41.202Z,101741.22
2022-12-28T16:32:12.720Z,101746.84
2022-12-28T16:34:40.612Z,101752.47
2022-12-28T16:37:11.877Z,101743.81
2022-12-28T16:39:43.358Z,101749.09
2022-12-28T16:42:12.658Z,101753.66
2022-12-28T16:44:41.182Z,101759.19
2022-12-28T16:47:47.817Z,101756.75
2022-12-28T16:50:42.951Z,101755.22
2022-12-28T16:53:41.572Z,101760.28
2022-12-28T17:00:09.910Z,101768.22
2022-12-28T17:02:41.302Z,101775.84
2022-12-28T17:05:48.139Z,101765.56
2022-12-28T17:08:42.401Z,101766.13
2022-12-28T17:11:14.026Z,101768.88
2022-12-28T17:13:43.574Z,101770.31
2022-12-28T17:16:46.280Z,101764.66
2022-12-28T17:19:43.845Z,101772.63
2022-12-28T17:22:12.285Z,101763.09
2022-12-28T17:24:44.337Z,101759.97
2022-12-28T17:27:42.188Z,101757.16
2022-12-28T17:30:34.155Z,101754.72
2022-12-28T17:33:12.519Z,101748.06
2022-12-28T17:35:42.946Z,101744.72
2022-12-28T17:42:41.064Z,101743.50
2022-12-28T17:45:44.937Z,101744.72
2022-12-28T17:48:45.919Z,101750.88
2022-12-28T17:51:42.991Z,101751.53
2022-12-28T17:55:25.588Z,101756.13
2022-12-28T17:57:44.702Z,101752.34
2022-12-28T18:00:45.291Z,101755.00
2022-12-28T18:03:42.597Z,101751.66
2022-12-28T18:06:12.947Z,101761.75
2022-12-28T18:08:44.606Z,101766.09
2022-12-28T18:11:42.717Z,101766.28
2022-12-28T18:14:40.830Z,101773.09
2022-12-28T18:17:12.396Z,101760.69
2022-12-28T18:19:43.602Z,101758.06
2022-12-28T18:22:17.857Z,101763.69
2022-12-28T18:24:46.124Z,101766.28
2022-12-28T18:27:47.074Z,101758.19
2022-12-28T18:30:35.488Z,101765.44
2022-12-28T18:36:21.838Z,101759.72
2022-12-28T18:38:50.663Z,101764.97
2022-12-28T18:41:34.173Z,101762.16
2022-12-28T18:44:08.757Z,101760.00
2022-12-28T18:46:37.266Z,101773.66
2022-12-28T18:49:23.253Z,101773.56
2022-12-28T18:51:51.778Z,101783.47
2022-12-28T18:54:44.245Z,101779.66
2022-12-28T18:57:12.562Z,101771.25
2022-12-28T18:59:43.614Z,101770.91
2022-12-28T19:02:19.433Z,101778.06
2022-12-28T19:04:48.829Z,101786.47
2022-12-28T19:07:24.028Z,101782.94
2022-12-28T19:10:13.014Z,101784.06
2022-12-28T19:12:45.173Z,101775.63
2022-12-28T19:15:38.740Z,101777.53
2022-12-28T19:18:47.337Z,101769.97
2022-12-28T19:21:35.211Z,101776.25
2022-12-28T19:24:21.816Z,101781.66
2022-12-28T19:26:50.340Z,101791.72
2022-12-28T19:29:53.641Z,101789.22
2022-12-28T19:32:22.174Z,101779.84
2022-12-28T19:34:50.548Z,101769.44
2022-12-28T19:37:27.952Z,101764.47
2022-12-28T19:39:57.952Z,101758.31
2022-12-28T19:42:45.570Z,101773.41
2022-12-28T19:45:20.754Z,101768.25
2022-12-28T19:47:49.023Z,101762.06
2022-12-28T19:56:13.537Z,101740.59
2022-12-28T19:58:46.398Z,101732.84
2022-12-28T20:01:18.993Z,101722.31
2022-12-28T20:03:49.230Z,101719.63
2022-12-28T20:06:25.549Z,101711.56
2022-12-28T20:08:57.771Z,101717.22
2022-12-28T20:11:26.641Z,101701.13
2022-12-28T20:16:45.479Z,101711.88
2022-12-28T20:19:17.253Z,101706.22
2022-12-28T20:21:50.287Z,101702.25
2022-12-28T20:24:46.440Z,101698.03
2022-12-28T20:27:58.128Z,101689.13
2022-12-28T20:34:45.530Z,101674.66
2022-12-28T20:37:53.213Z,101660.16
2022-12-28T20:40:25.652Z,101652.25
2022-12-28T20:54:16.570Z,101617.66
2022-12-28T20:56:55.125Z,101620.00
2022-12-28T20:59:48.228Z,101624.63
2022-12-28T21:02:31.958Z,101612.94
2022-12-28T21:05:47.460Z,101610.47
2022-12-28T21:08:18.549Z,101611.31
2022-12-28T21:10:52.123Z,101609.84
2022-12-28T21:13:26.270Z,101602.13
2022-12-28T21:18:50.640Z,101570.72
2022-12-28T21:21:47.236Z,101562.75
2022-12-28T21:24:22.941Z,101562.81
2022-12-28T21:26:51.313Z,101558.09
2022-12-28T21:29:52.200Z,101557.81
2022-12-28T21:35:33.902Z,101550.88
2022-12-28T22:30:37.658Z,101565.00
2022-12-28T22:35:53.394Z,101563.72
2022-12-28T22:38:54.739Z,101563.72
2022-12-28T22:41:30.098Z,101567.22
2022-12-28T22:45:08.441Z,101559.03
2022-12-28T22:52:43.330Z,101557.31
2022-12-28T23:00:54.666Z,101566.38
2022-12-28T23:07:22.366Z,101571.69
2022-12-28T23:11:20.848Z,101575.31
2022-12-28T23:17:00.349Z,101601.09
2022-12-28T23:22:59.632Z,101620.66
2022-12-28T23:29:01.811Z,101624.19
2022-12-28T23:36:03.411Z,101629.50
2022-12-28T23:38:55.452Z,101631.50
2022-12-28T23:41:51.154Z,101632.53
2022-12-28T23:44:52.528Z,101629.09
2022-12-28T23:47:24.577Z,101630.13
2022-12-28T23:49:58.225Z,101627.75
2022-12-28T23:52:59.630Z,101631.44
2022-12-28T23:56:02.938Z,101620.88
2022-12-28T23:58:52.436Z,101618.34
